Time;durP1;ratioP1;P1;durP2;ratioP2;P2;SDS_P1;SDS_P2;PMS_P1;PMS_P2;Temp;Humidity;BMP_temperature;BMP_pressure;BME280_temperature;BME280_humidity;BME280_pressure;Samples;Min_cycle;Max_cycle;Signal;HPM_P1;HPM_P2
2022/06/16 00:00:22;;;;;;;5.25;4.85;;;22.50;44.80;;;;;;20557;6786;303299;-87
2022/06/16 00:02:58;;;;;;;5.00;4.60;;;22.80;43.90;;;;;;20750;6786;120842;-87
2022/06/16 00:05:34;;;;;;;5.33;5.03;;;22.70;43.80;;;;;;20770;6786;117075;-88
2022/06/16 00:08:09;;;;;;;5.60;5.20;;;22.40;44.10;;;;;;20341;6857;306353;-88
2022/06/16 00:13:40;;;;;;;4.87;4.47;;;22.60;44.00;;;;;;20768;6786;117074;-88
2022/06/16 00:16:16;;;;;;;4.40;4.10;;;22.30;44.10;;;;;;20721;6786;119571;-88
2022/06/16 00:18:52;;;;;;;5.30;4.90;;;22.20;44.30;;;;;;20577;6777;306828;-88
2022/06/16 00:21:28;;;;;;;7.50;4.50;;;22.40;43.60;;;;;;20783;6777;117138;-88
2022/06/16 00:24:03;;;;;;;4.90;4.60;;;22.40;43.50;;;;;;20766;6786;117694;-88
2022/06/16 00:26:39;;;;;;;5.30;4.27;;;22.20;43.60;;;;;;20688;6786;67599;-88
2022/06/16 00:29:14;;;;;;;4.50;4.20;;;22.10;43.80;;;;;;20513;6779;279931;-88
2022/06/16 00:31:51;;;;;;;4.65;4.35;;;22.70;41.90;;;;;;20561;6773;306308;-88
2022/06/16 00:34:26;;;;;;;4.68;4.28;;;22.70;41.80;;;;;;20549;6778;308780;-88
2022/06/16 00:37:02;;;;;;;4.50;4.13;;;23.00;41.40;;;;;;20503;6773;309164;-89
2022/06/16 00:39:37;;;;;;;4.35;4.05;;;23.30;39.90;;;;;;20651;6758;282203;-88
2022/06/16 00:42:20;;;;;;;5.07;4.57;;;23.40;39.70;;;;;;20645;6758;292175;-88
2022/06/16 00:44:57;;;;;;;4.57;4.27;;;23.50;39.80;;;;;;20640;6758;277203;-87
2022/06/16 00:47:31;;;;;;;4.80;4.00;;;23.50;39.90;;;;;;20695;6758;119640;-87
2022/06/16 00:50:07;;;;;;;4.70;4.40;;;23.20;40.60;;;;;;20647;6758;297168;-88
2022/06/16 00:52:43;;;;;;;4.20;3.90;;;22.90;40.40;;;;;;20855;6758;118969;-89
2022/06/16 00:55:19;;;;;;;5.13;4.50;;;22.90;40.40;;;;;;20910;6758;118706;-89
2022/06/16 00:57:54;;;;;;;3.90;3.70;;;22.60;41.10;;;;;;20750;6759;68436;-91
2022/06/16 01:00:34;;;;;;;4.07;3.77;;;22.40;41.60;;;;;;20942;6758;115878;-90
2022/06/16 01:03:08;;;;;;;4.93;4.60;;;22.10;42.10;;;;;;20928;6758;120927;-89
2022/06/16 01:05:44;;;;;;;4.77;4.47;;;22.00;42.60;;;;;;20719;6758;305835;-89
2022/06/16 01:08:20;;;;;;;4.83;4.40;;;22.20;42.70;;;;;;20962;6758;67564;-90
2022/06/16 01:10:55;;;;;;;5.03;4.63;;;22.20;42.90;;;;;;20938;6758;115861;-89
2022/06/16 01:13:44;;;;;;;4.57;4.37;;;21.80;43.30;;;;;;20912;6758;116671;-91
2022/06/16 01:16:23;;;;;;;5.10;4.53;;;21.70;43.20;;;;;;20817;6758;117019;-90
2022/06/16 01:19:08;;;;;;;5.10;4.60;;;21.60;43.50;;;;;;20853;6758;119589;-91
2022/06/16 01:21:43;;;;;;;4.33;4.13;;;21.50;43.50;;;;;;20868;6758;119481;-88
2022/06/16 01:24:27;;;;;;;5.20;4.80;;;21.70;43.90;;;;;;20659;6758;276120;-91
2022/06/16 01:27:25;;;;;;;5.15;4.85;;;21.70;43.60;;;;;;20522;6758;307797;-91
2022/06/16 01:30:08;;;;;;;5.00;4.60;;;22.20;43.00;;;;;;20650;6758;304037;-88
2022/06/16 01:32:56;;;;;;;5.00;4.60;;;22.50;42.50;;;;;;20661;6758;276866;-88
2022/06/16 01:35:35;;;;;;;5.03;4.63;;;22.70;42.00;;;;;;20091;6812;295287;-92
2022/06/16 01:38:32;;;;;;;4.77;4.47;;;22.80;41.50;;;;;;20426;6830;312367;-88
2022/06/16 01:41:24;;;;;;;5.00;4.60;;;22.80;41.80;;;;;;20627;6758;335581;-90
2022/06/16 01:44:05;;;;;;;4.73;4.33;;;22.80;41.70;;;;;;20859;6758;117546;-89
2022/06/16 01:46:41;;;;;;;5.67;4.30;;;22.40;42.30;;;;;;20768;6758;117468;-90
2022/06/16 01:49:20;;;;;;;5.20;4.40;;;22.00;42.90;;;;;;20844;6758;117377;-88
2022/06/16 01:51:57;;;;;;;4.50;4.20;;;21.80;43.50;;;;;;20642;6758;292198;-91
2022/06/16 01:54:32;;;;;;;4.73;4.30;;;21.70;43.50;;;;;;20851;6758;118960;-92
2022/06/16 01:57:18;;;;;;;4.20;3.80;;;21.70;43.40;;;;;;20707;6759;117973;-90
2022/06/16 02:00:13;;;;;;;4.60;4.20;;;21.50;43.50;;;;;;20643;6758;309549;-89
2022/06/16 02:02:48;;;;;;;4.97;4.67;;;21.70;42.70;;;;;;20868;6758;119687;-88
2022/06/16 02:05:44;;;;;;;5.20;4.80;;;21.60;43.10;;;;;;20636;6758;306208;-88
2022/06/16 02:08:19;;;;;;;4.93;4.53;;;21.70;43.30;;;;;;20862;6758;116945;-91
2022/06/16 02:10:58;;;;;;;4.43;4.23;;;21.60;43.60;;;;;;20842;6758;120473;-89
2022/06/16 02:13:34;;;;;;;4.57;4.37;;;21.40;44.00;;;;;;20645;6758;334622;-90
2022/06/16 02:16:13;;;;;;;5.23;4.83;;;21.50;43.80;;;;;;20618;6758;282705;-90
2022/06/16 02:18:50;;;;;;;5.00;4.70;;;22.10;43.00;;;;;;20655;6758;305703;-88
2022/06/16 02:21:41;;;;;;;4.80;4.50;;;22.10;43.00;;;;;;20851;6758;119607;-88
2022/06/16 02:24:20;;;;;;;5.10;4.80;;;21.90;43.30;;;;;;20865;6758;117434;-87
2022/06/16 02:26:55;;;;;;;4.83;4.53;;;21.50;43.90;;;;;;20527;6758;282842;-88
2022/06/16 02:29:34;;;;;;;5.00;4.70;;;21.60;43.70;;;;;;20658;6758;276668;-88
2022/06/16 02:32:09;;;;;;;4.78;4.53;;;21.90;43.30;;;;;;20720;6758;306984;-90
2022/06/16 02:35:08;;;;;;;4.70;4.40;;;22.20;42.90;;;;;;20718;6758;304992;-89
2022/06/16 02:37:46;;;;;;;4.93;4.63;;;22.40;43.10;;;;;;20746;6758;119197;-89
2022/06/16 02:40:45;;;;;;;5.00;4.47;;;22.10;43.20;;;;;;20949;6758;67138;-89
2022/06/16 02:43:47;;;;;;;6.90;4.60;;;21.70;43.40;;;;;;20703;6758;305200;-89
2022/06/16 02:46:39;;;;;;;4.90;4.50;;;21.90;42.20;;;;;;20868;6758;116222;-90
2022/06/16 02:49:30;;;;;;;4.80;4.40;;;21.70;42.60;;;;;;20909;6758;116154;-90
2022/06/16 02:52:09;;;;;;;5.00;4.53;;;21.40;43.30;;;;;;20921;6758;118635;-90
2022/06/16 02:54:55;;;;;;;4.70;4.40;;;21.10;43.80;;;;;;20932;6758;116230;-89
2022/06/16 02:57:29;;;;;;;4.50;4.20;;;20.90;44.20;;;;;;20780;6758;66593;-90
2022/06/16 03:00:13;;;;;;;4.90;4.60;;;20.80;44.40;;;;;;20895;6759;116018;-88
2022/06/16 03:02:49;;;;;;;4.47;4.18;;;20.70;44.50;;;;;;20647;6759;277157;-88
2022/06/16 03:05:24;;;;;;;4.53;4.23;;;21.10;44.00;;;;;;20639;6758;277398;-88
2022/06/16 03:08:00;;;;;;;4.87;4.47;;;21.50;42.90;;;;;;20442;6758;278719;-88
2022/06/16 03:10:52;;;;;;;4.55;4.35;;;21.90;42.20;;;;;;20648;6758;307067;-89
2022/06/16 03:13:27;;;;;;;4.35;4.15;;;22.10;42.00;;;;;;20650;6758;280004;-88
2022/06/16 03:16:04;;;;;;;4.70;4.30;;;22.30;41.60;;;;;;20609;6758;279996;-87
2022/06/16 03:18:39;;;;;;;5.40;4.90;;;22.40;42.40;;;;;;20642;6758;277272;-88
2022/06/16 03:21:14;;;;;;;5.00;4.70;;;22.40;42.40;;;;;;20621;6758;278682;-89
2022/06/16 03:23:50;;;;;;;5.13;4.70;;;22.30;42.90;;;;;;20644;6758;307446;-88
2022/06/16 03:26:26;;;;;;;5.50;5.10;;;22.20;42.80;;;;;;20577;6758;308903;-87
2022/06/16 03:29:02;;;;;;;5.33;4.93;;;22.10;43.70;;;;;;20624;6758;308581;-88
2022/06/16 03:31:38;;;;;;;5.13;4.80;;;22.00;43.10;;;;;;20645;6758;304601;-88
2022/06/16 03:34:13;;;;;;;5.27;4.97;;;22.00;43.30;;;;;;20861;6758;116969;-88
2022/06/16 03:36:49;;;;;;;5.63;5.10;;;21.60;43.90;;;;;;20560;6758;309505;-87
2022/06/16 03:39:25;;;;;;;4.90;4.53;;;21.40;44.10;;;;;;20847;6758;119996;-87
2022/06/16 03:42:00;;;;;;;4.83;4.53;;;21.10;44.50;;;;;;20861;6758;121026;-87
2022/06/16 03:44:36;;;;;;;5.20;4.80;;;20.90;45.40;;;;;;20654;6758;278537;-87
2022/06/16 03:47:12;;;;;;;4.95;4.65;;;20.90;45.40;;;;;;20476;6758;344812;-87
2022/06/16 03:49:48;;;;;;;4.73;4.33;;;21.00;45.10;;;;;;20859;6758;117437;-87
2022/06/16 03:52:24;;;;;;;5.40;4.90;;;21.00;45.10;;;;;;20578;6758;276788;-87
2022/06/16 03:54:59;;;;;;;5.27;4.87;;;21.10;44.90;;;;;;20818;6758;140746;-89
2022/06/16 03:57:35;;;;;;;4.90;4.60;;;21.00;45.10;;;;;;20473;6758;313346;-87
2022/06/16 04:00:11;;;;;;;5.53;5.13;;;21.20;45.30;;;;;;20634;6758;307263;-87
2022/06/16 04:02:46;;;;;;;4.30;4.00;;;21.40;45.00;;;;;;20855;6759;117405;-88
2022/06/16 04:05:22;;;;;;;4.63;4.43;;;21.20;45.10;;;;;;20835;6758;117015;-87
2022/06/16 04:07:57;;;;;;;4.70;4.40;;;20.90;45.70;;;;;;20434;6758;306679;-87
2022/06/16 04:10:33;;;;;;;5.17;4.70;;;21.00;45.90;;;;;;20845;6758;117357;-88
2022/06/16 04:13:09;;;;;;;5.40;5.00;;;20.80;45.80;;;;;;20840;6758;117047;-88
2022/06/16 04:15:45;;;;;;;5.40;4.60;;;20.30;46.50;;;;;;20853;6758;117131;-86
2022/06/16 04:18:20;;;;;;;5.13;4.70;;;20.30;46.50;;;;;;20855;6758;118571;-87
2022/06/16 04:20:56;;;;;;;4.60;4.30;;;20.20;46.80;;;;;;20831;6758;117360;-88
2022/06/16 04:23:32;;;;;;;4.90;4.60;;;20.20;47.00;;;;;;20636;6758;306580;-86
2022/06/16 04:26:07;;;;;;;4.82;4.53;;;20.50;46.60;;;;;;20605;6758;338299;-87
2022/06/16 04:28:43;;;;;;;5.10;4.70;;;21.00;46.10;;;;;;20637;6758;307006;-87
2022/06/16 04:31:18;;;;;;;6.70;4.50;;;21.50;45.40;;;;;;20834;6758;119179;-87
2022/06/16 04:33:54;;;;;;;4.87;4.47;;;21.40;45.40;;;;;;20868;6758;116808;-87
2022/06/16 04:36:29;;;;;;;4.80;4.50;;;21.20;45.80;;;;;;20573;6758;279492;-87
2022/06/16 04:39:05;;;;;;;4.90;4.50;;;21.30;45.50;;;;;;20848;6758;119593;-87
2022/06/16 04:41:40;;;;;;;4.70;4.30;;;21.30;45.70;;;;;;20623;6758;308012;-88
2022/06/16 04:44:26;;;;;;;5.17;4.77;;;21.40;45.60;;;;;;20850;6758;116885;-88
2022/06/16 04:46:52;;;;;;;4.80;4.40;;;21.40;45.70;;;;;;20758;6758;116985;-87
2022/06/16 04:49:28;;;;;;;4.70;4.40;;;21.20;45.90;;;;;;20653;6758;276996;-90
2022/06/16 04:52:07;;;;;;;5.03;4.70;;;21.40;45.60;;;;;;20643;6758;309302;-90
2022/06/16 04:54:46;;;;;;;5.10;4.70;;;21.70;44.90;;;;;;20851;6758;117857;-92
2022/06/16 04:57:22;;;;;;;4.93;4.63;;;21.60;45.00;;;;;;20490;6758;309206;-94
2022/06/16 05:00:07;;;;;;;5.20;4.80;;;21.70;45.30;;;;;;20664;6758;314287;-92
2022/06/16 05:02:32;;;;;;;4.90;4.60;;;22.00;44.80;;;;;;20654;6758;309298;-89
2022/06/16 05:05:09;;;;;;;4.97;4.57;;;22.20;44.30;;;;;;20834;6758;126882;-90
2022/06/16 05:07:45;;;;;;;4.60;4.30;;;22.00;44.60;;;;;;20664;6758;117582;-89
2022/06/16 05:10:21;;;;;;;4.50;4.23;;;21.90;44.70;;;;;;20633;6758;307436;-88
2022/06/16 05:12:57;;;;;;;4.67;4.40;;;21.80;44.60;;;;;;20851;6758;127204;-87
2022/06/16 05:15:34;;;;;;;4.83;4.43;;;21.80;44.70;;;;;;20646;6758;304011;-88
2022/06/16 05:18:12;;;;;;;5.00;4.73;;;22.00;44.20;;;;;;20626;6830;118627;-86
2022/06/16 05:20:45;;;;;;;4.90;4.50;;;21.90;44.40;;;;;;20794;6773;117177;-85
2022/06/16 05:23:21;;;;;;;4.70;4.30;;;21.70;44.80;;;;;;20721;6792;117333;-86
2022/06/16 05:25:57;;;;;;;4.57;4.37;;;21.50;45.00;;;;;;20745;6788;117181;-88
2022/06/16 05:28:32;;;;;;;4.97;4.67;;;21.40;45.20;;;;;;20745;6792;117435;-88
2022/06/16 05:31:07;;;;;;;4.80;4.40;;;21.40;45.30;;;;;;20730;6791;119633;-84
2022/06/16 05:33:44;;;;;;;5.00;4.63;;;21.70;45.40;;;;;;20537;6792;277506;-88
2022/06/16 05:36:19;;;;;;;4.70;4.40;;;21.70;45.00;;;;;;20540;6773;309551;-92
2022/06/16 05:38:55;;;;;;;5.20;4.87;;;22.20;44.30;;;;;;20804;6783;127232;-86
2022/06/16 05:41:30;;;;;;;4.93;4.53;;;22.20;44.20;;;;;;20787;6775;117229;-87
2022/06/16 05:44:06;;;;;;;4.60;4.30;;;22.10;44.40;;;;;;20580;6778;276900;-89
2022/06/16 05:46:41;;;;;;;4.80;4.50;;;22.30;43.50;;;;;;20500;6778;341710;-89
2022/06/16 05:49:21;;;;;;;4.30;4.00;;;22.80;43.10;;;;;;20740;6788;120890;-89
2022/06/16 05:51:55;;;;;;;5.07;4.70;;;22.70;43.20;;;;;;20598;6773;277830;-88
2022/06/16 05:54:31;;;;;;;4.40;4.20;;;22.90;43.00;;;;;;20796;6773;117640;-88
2022/06/16 05:57:08;;;;;;;5.70;4.77;;;22.90;43.30;;;;;;20590;6803;120852;-87
2022/06/16 05:59:43;;;;;;;4.80;4.40;;;22.80;43.70;;;;;;20558;6778;306671;-87
2022/06/16 06:02:20;;;;;;;4.83;4.60;;;23.00;43.00;;;;;;20534;6788;277871;-86
2022/06/16 06:04:56;;;;;;;5.27;4.77;;;23.30;42.70;;;;;;20788;6771;116980;-88
2022/06/16 06:16:25;;;;;;;5.20;4.80;;;23.30;43.10;;;;;;20464;6771;309038;-89
2022/06/16 06:18:55;;;;;;;4.80;4.50;;;23.60;43.80;;;;;;20838;6763;117979;-87
2022/06/16 06:24:26;;;;;;;4.30;4.00;;;23.60;44.10;;;;;;20630;6763;298217;-87
2022/06/16 06:27:02;;;;;;;4.60;4.30;;;24.00;42.90;;;;;;20688;6763;119683;-88
2022/06/16 06:29:37;;;;;;;4.67;4.37;;;24.20;43.10;;;;;;20626;6763;276825;-87
2022/06/16 06:32:13;;;;;;;5.00;4.60;;;24.50;43.50;;;;;;20619;6763;308164;-87
2022/06/16 06:34:49;;;;;;;4.73;4.27;;;25.10;43.00;;;;;;20827;6763;117105;-87
2022/06/16 06:37:24;;;;;;;4.50;4.20;;;25.50;42.90;;;;;;20664;6763;117467;-87
2022/06/16 06:40:00;;;;;;;4.77;4.47;;;25.60;42.20;;;;;;20626;6763;278147;-88
2022/06/16 06:42:37;;;;;;;4.57;4.33;;;25.90;41.40;;;;;;20837;6763;117164;-87
2022/06/16 06:45:12;;;;;;;4.95;4.37;;;26.00;41.60;;;;;;20611;6763;427567;-87
2022/06/16 06:47:48;;;;;;;4.10;3.90;;;26.60;41.10;;;;;;20623;6763;117623;-87
2022/06/16 06:50:23;;;;;;;4.90;4.50;;;27.00;41.20;;;;;;20624;6763;292200;-87
2022/06/16 06:53:01;;;;;;;4.50;4.20;;;27.90;38.90;;;;;;20810;6763;120674;-87
2022/06/16 06:55:37;;;;;;;4.63;4.40;;;27.90;38.90;;;;;;20626;6763;305460;-87
2022/06/16 06:58:15;;;;;;;4.50;4.20;;;28.10;37.60;;;;;;20451;6818;308704;-88
2022/06/16 07:00:53;;;;;;;4.80;4.30;;;28.60;36.90;;;;;;20789;6777;117491;-87
2022/06/16 07:03:26;;;;;;;4.33;4.00;;;28.80;37.20;;;;;;20749;6786;117118;-87
2022/06/16 07:06:03;;;;;;;4.53;4.23;;;29.50;35.50;;;;;;20568;6788;310177;-87
2022/06/16 07:08:39;;;;;;;4.67;4.27;;;29.70;35.60;;;;;;20761;6788;122536;-87
2022/06/16 07:11:14;;;;;;;5.20;4.27;;;29.70;35.60;;;;;;20775;6773;122158;-87
2022/06/16 07:13:50;;;;;;;4.17;3.97;;;29.50;35.80;;;;;;20728;6788;119038;-87
2022/06/16 07:16:27;;;;;;;4.40;4.20;;;29.20;35.70;;;;;;20693;6790;117047;-87
2022/06/16 07:19:03;;;;;;;4.40;4.10;;;28.80;35.80;;;;;;20789;6786;144139;-86
2022/06/16 07:21:38;;;;;;;4.60;4.30;;;28.50;36.10;;;;;;20805;6771;117409;-87
2022/06/16 07:24:14;;;;;;;4.63;4.23;;;28.30;36.50;;;;;;20620;6763;277546;-87
2022/06/16 07:26:49;;;;;;;4.40;4.10;;;28.60;35.90;;;;;;20559;6758;301768;-87
2022/06/16 07:29:25;;;;;;;4.60;4.10;;;29.10;35.90;;;;;;20778;6773;118812;-87
2022/06/16 07:32:00;;;;;;;4.12;3.83;;;29.30;35.90;;;;;;20585;6773;321250;-87
2022/06/16 07:34:36;;;;;;;4.47;4.13;;;29.60;35.90;;;;;;20755;6788;117070;-87
2022/06/16 07:37:12;;;;;;;4.17;3.77;;;29.60;35.70;;;;;;20624;6788;118082;-87
2022/06/16 07:39:47;;;;;;;4.03;3.83;;;29.30;35.80;;;;;;20788;6778;117547;-87
2022/06/16 07:42:23;;;;;;;4.37;4.07;;;29.20;36.30;;;;;;20462;6792;281117;-87
2022/06/16 07:44:59;;;;;;;4.60;4.20;;;29.60;36.00;;;;;;20550;6778;278144;-87
2022/06/16 07:47:35;;;;;;;5.67;4.50;;;29.50;35.90;;;;;;20670;6775;117503;-88
2022/06/16 07:50:12;;;;;;;4.70;4.30;;;29.50;35.90;;;;;;20581;6775;308218;-87
2022/06/16 07:52:47;;;;;;;4.40;4.03;;;29.70;36.30;;;;;;20600;6775;310039;-87
2022/06/16 07:55:23;;;;;;;4.60;4.30;;;29.70;36.30;;;;;;20788;6775;117964;-88
2022/06/16 07:57:59;;;;;;;4.20;3.80;;;29.60;36.50;;;;;;20672;6775;121791;-86
2022/06/16 08:00:35;;;;;;;5.13;4.57;;;29.30;36.90;;;;;;20719;6799;121667;-88
2022/06/16 08:03:10;;;;;;;4.53;4.27;;;29.00;37.50;;;;;;20737;6784;144379;-88
2022/06/16 08:05:47;;;;;;;4.33;4.03;;;28.90;37.40;;;;;;20761;6784;118058;-87
2022/06/16 08:08:23;;;;;;;4.40;4.00;;;28.90;37.40;;;;;;20489;6803;311186;-87
2022/06/16 08:10:58;;;;;;;4.43;4.12;;;29.20;37.00;;;;;;20534;6788;310448;-88
2022/06/16 08:13:34;;;;;;;4.43;4.03;;;29.70;36.30;;;;;;20508;6799;308163;-88
2022/06/16 08:16:10;;;;;;;4.23;3.83;;;30.10;35.40;;;;;;20683;6803;117741;-88
2022/06/16 08:18:45;;;;;;;4.07;3.70;;;30.20;35.80;;;;;;20706;6805;117347;-88
2022/06/16 08:21:21;;;;;;;4.33;4.07;;;30.10;36.10;;;;;;20734;6803;119408;-87
2022/06/16 08:23:56;;;;;;;4.33;3.97;;;30.10;36.30;;;;;;20739;6793;118491;-87
2022/06/16 08:26:33;;;;;;;4.20;3.87;;;30.00;35.70;;;;;;20676;6793;117219;-87
2022/06/16 08:29:08;;;;;;;4.30;3.80;;;29.90;35.60;;;;;;20839;6758;127263;-86
2022/06/16 08:31:44;;;;;;;4.50;4.10;;;30.00;35.80;;;;;;20740;6792;117179;-86
2022/06/16 08:34:19;;;;;;;4.00;3.70;;;30.00;35.60;;;;;;20789;6778;117147;-87
2022/06/16 08:36:55;;;;;;;4.97;4.10;;;30.20;35.30;;;;;;20655;6788;118805;-88
2022/06/16 08:39:30;;;;;;;3.93;3.73;;;30.30;34.30;;;;;;20592;6773;310091;-87
2022/06/16 08:42:10;;;;;;;4.20;3.80;;;31.00;33.00;;;;;;20552;6786;307981;-88
2022/06/16 08:45:06;;;;;;;4.33;4.03;;;31.00;33.00;;;;;;20814;6771;116943;-88
2022/06/16 08:47:41;;;;;;;3.93;3.70;;;31.00;33.30;;;;;;20445;6777;311170;-88
2022/06/16 08:50:24;;;;;;;5.43;3.70;;;31.40;32.30;;;;;;20487;6806;307284;-88
2022/06/16 08:53:03;;;;;;;4.40;4.00;;;31.40;32.30;;;;;;20479;6806;280441;-87
2022/06/16 08:55:45;;;;;;;4.10;3.80;;;31.80;33.20;;;;;;20496;6801;319852;-87
2022/06/16 08:58:24;;;;;;;4.13;3.83;;;32.10;31.60;;;;;;20800;6773;117682;-88
2022/06/16 09:01:07;;;;;;;4.10;3.70;;;32.50;32.00;;;;;;20564;6773;307110;-88
2022/06/16 09:03:45;;;;;;;3.97;3.77;;;32.40;31.90;;;;;;20710;6803;117404;-88
2022/06/16 09:06:53;;;;;;;4.00;3.70;;;32.50;31.90;;;;;;20707;6788;117147;-88
2022/06/16 09:12:41;;;;;;;5.23;4.10;;;32.20;31.90;;;;;;20591;6773;278097;-88
2022/06/16 09:15:40;;;;;;;4.23;3.93;;;32.60;32.10;;;;;;20578;6773;307290;-88
2022/06/16 09:18:56;;;;;;;4.60;4.07;;;32.90;31.80;;;;;;20756;6788;117477;-88
2022/06/16 09:21:35;;;;;;;4.37;3.97;;;33.20;32.50;;;;;;20555;6788;278240;-88
2022/06/16 09:24:44;;;;;;;7.70;3.87;;;33.10;32.40;;;;;;20550;6788;282507;-88
2022/06/16 09:27:19;;;;;;;3.80;3.60;;;33.50;29.50;;;;;;20514;6758;309215;-87
2022/06/16 09:29:58;;;;;;;3.70;3.40;;;33.80;28.60;;;;;;20583;6778;281620;-87
2022/06/16 09:32:38;;;;;;;4.05;3.75;;;33.80;29.00;;;;;;20612;6773;305273;-88
2022/06/16 09:35:18;;;;;;;6.00;3.47;;;33.90;28.60;;;;;;20805;6773;119450;-88
2022/06/16 09:38:08;;;;;;;4.25;3.90;;;33.60;28.60;;;;;;20442;6773;338842;-88
2022/06/16 09:40:46;;;;;;;4.22;3.83;;;33.60;28.60;;;;;;20582;6788;335852;-88
2022/06/16 09:43:22;;;;;;;4.33;3.70;;;33.70;29.10;;;;;;20722;6788;118138;-88
2022/06/16 09:46:14;;;;;;;3.57;3.37;;;33.50;29.00;;;;;;20735;6788;120190;-88
2022/06/16 09:49:03;;;;;;;5.13;3.90;;;33.20;29.30;;;;;;20538;6788;307422;-87
2022/06/16 09:51:48;;;;;;;3.60;3.30;;;33.30;28.50;;;;;;20687;6805;117475;-88
2022/06/16 09:54:26;;;;;;;4.00;3.67;;;33.20;28.60;;;;;;20525;6795;288767;-87
2022/06/16 09:57:08;;;;;;;3.80;3.47;;;33.20;29.00;;;;;;20418;6790;340779;-88
2022/06/16 09:59:44;;;;;;;3.77;3.50;;;33.40;28.70;;;;;;20750;6788;117663;-88
2022/06/16 10:02:20;;;;;;;3.72;3.42;;;33.20;29.00;;;;;;20584;6773;332334;-88
2022/06/16 10:04:55;;;;;;;4.00;3.57;;;33.30;29.80;;;;;;20681;6805;124075;-87
2022/06/16 10:07:37;;;;;;;3.83;3.40;;;33.30;29.40;;;;;;20412;6788;310274;-88
2022/06/16 10:10:13;;;;;;;3.60;3.40;;;33.30;28.60;;;;;;20764;6786;117105;-88
2022/06/16 10:13:10;;;;;;;3.60;3.30;;;33.40;28.30;;;;;;20550;6786;277911;-88
2022/06/16 10:15:45;;;;;;;4.23;3.10;;;33.40;27.80;;;;;;20752;6786;117191;-88
2022/06/16 10:18:22;;;;;;;4.43;3.27;;;33.40;28.30;;;;;;20783;6778;119693;-88
2022/06/16 10:20:58;;;;;;;3.60;3.17;;;33.30;28.50;;;;;;20611;6758;313895;-88
2022/06/16 10:23:44;;;;;;;3.80;3.37;;;33.50;28.40;;;;;;20748;6788;117964;-88
2022/06/16 10:26:20;;;;;;;3.63;3.40;;;33.70;27.30;;;;;;20497;6788;310666;-88
2022/06/16 10:29:03;;;;;;;3.40;3.00;;;33.70;27.30;;;;;;20584;6771;277819;-88
2022/06/16 10:31:39;;;;;;;3.77;3.47;;;33.80;27.40;;;;;;20797;6771;117264;-88
2022/06/16 10:34:25;;;;;;;3.73;3.47;;;33.60;27.70;;;;;;20768;6785;119303;-88
2022/06/16 10:37:17;;;;;;;4.33;3.93;;;33.40;28.60;;;;;;20644;6788;117669;-88
2022/06/16 10:39:55;;;;;;;3.37;2.90;;;33.20;28.90;;;;;;20531;6790;310174;-88
2022/06/16 10:42:31;;;;;;;3.53;3.10;;;33.40;27.80;;;;;;20561;6784;305391;-88
2022/06/16 10:45:06;;;;;;;3.30;3.10;;;33.70;28.00;;;;;;20669;6805;117640;-88
2022/06/16 10:47:52;;;;;;;4.93;3.20;;;33.70;28.10;;;;;;20409;6788;309916;-88
2022/06/16 10:50:41;;;;;;;3.60;3.10;;;33.90;27.60;;;;;;20835;6758;119437;-88
2022/06/16 10:53:24;;;;;;;3.77;3.37;;;33.90;27.90;;;;;;20743;6788;117161;-88
2022/06/16 10:56:02;;;;;;;3.20;3.00;;;33.70;28.20;;;;;;20584;6790;310306;-91
2022/06/16 10:58:48;;;;;;;3.20;3.00;;;33.90;28.20;;;;;;20811;6788;117533;-88
2022/06/16 11:01:24;;;;;;;5.43;3.27;;;33.80;28.20;;;;;;20264;6829;118227;-88
2022/06/16 11:04:09;;;;;;;4.82;3.30;;;33.80;28.30;;;;;;20523;6788;339197;-88
2022/06/16 11:06:59;;;;;;;3.30;3.10;;;33.90;27.60;;;;;;20674;6799;116935;-88
2022/06/16 11:09:25;;;;;;;3.43;3.13;;;34.00;27.50;;;;;;20499;6799;307086;-88
2022/06/16 11:12:17;;;;;;;3.63;3.20;;;34.00;27.00;;;;;;20729;6799;117103;-87
2022/06/16 11:14:59;;;;;;;3.30;3.10;;;33.90;27.40;;;;;;20770;6799;117154;-88
2022/06/16 11:17:38;;;;;;;3.43;3.17;;;33.70;27.50;;;;;;20384;6801;281098;-88
2022/06/16 11:20:16;;;;;;;3.42;3.12;;;33.80;27.90;;;;;;20592;6774;310886;-87
2022/06/16 11:22:53;;;;;;;3.22;2.92;;;34.00;27.40;;;;;;20589;6774;336094;-87
2022/06/16 11:25:32;;;;;;;3.20;3.00;;;34.10;26.70;;;;;;20592;6773;336347;-87
2022/06/16 11:28:09;;;;;;;4.50;3.30;;;34.20;26.30;;;;;;20532;6861;117766;-87
2022/06/16 11:30:49;;;;;;;3.97;3.40;;;33.90;26.60;;;;;;20793;6773;118170;-87
2022/06/16 11:37:00;;;;;;;3.27;2.97;;;32.70;28.10;;;;;;20732;6778;122154;-88
2022/06/16 11:39:53;;;;;;;3.53;3.07;;;32.70;28.10;;;;;;20620;6764;308358;-87
2022/06/16 11:42:45;;;;;;;3.40;3.10;;;32.80;27.20;;;;;;20582;6778;307438;-88
2022/06/16 11:45:40;;;;;;;3.33;3.13;;;33.00;27.80;;;;;;20579;6773;306003;-87
2022/06/16 11:48:32;;;;;;;2.77;2.67;;;33.20;27.10;;;;;;20275;6829;121843;-88
2022/06/16 11:51:20;;;;;;;;;;;;;;;;;;;;;
2022/06/16 11:54:19;;;;;;;3.50;3.20;;;32.90;28.10;;;;;;20807;6773;117046;-87
2022/06/16 11:57:29;;;;;;;3.33;3.13;;;32.40;28.50;;;;;;20700;6773;117957;-87
2022/06/16 12:00:14;;;;;;;3.60;3.30;;;32.40;28.50;;;;;;20872;6773;66710;-89
2022/06/16 12:03:13;;;;;;;5.83;3.40;;;32.20;28.80;;;;;;20844;6792;66638;-89
2022/06/16 12:06:14;;;;;;;3.73;3.47;;;32.10;29.00;;;;;;20885;6778;66197;-89
2022/06/16 12:09:10;;;;;;;3.70;2.90;;;32.10;29.50;;;;;;20869;6778;115894;-88
2022/06/16 12:12:05;;;;;;;4.60;3.40;;;32.20;29.60;;;;;;20866;6778;116315;-89
2022/06/16 12:15:07;;;;;;;3.33;3.20;;;32.20;29.30;;;;;;20894;6778;66585;-88
2022/06/16 12:17:46;;;;;;;3.87;3.57;;;32.10;29.10;;;;;;20560;6778;283566;-89
2022/06/16 12:20:42;;;;;;;4.00;3.10;;;32.30;29.10;;;;;;20559;6792;307633;-90
2022/06/16 12:23:21;;;;;;;3.03;2.73;;;32.70;29.00;;;;;;20556;6792;277838;-87
2022/06/16 12:26:15;;;;;;;3.30;3.00;;;33.10;27.30;;;;;;20138;6864;122073;-88
2022/06/16 12:29:12;;;;;;;4.00;2.63;;;33.00;27.30;;;;;;20770;6792;116373;-89
2022/06/16 12:32:05;;;;;;;3.40;2.83;;;32.70;28.30;;;;;;20799;6778;117184;-87
2022/06/16 12:34:44;;;;;;;7.27;3.03;;;32.60;28.20;;;;;;20800;6776;120360;-87
2022/06/16 12:37:19;;;;;;;3.15;2.80;;;32.50;28.50;;;;;;20435;6834;338862;-87
2022/06/16 12:39:55;;;;;;;3.75;2.70;;;32.70;28.10;;;;;;20627;6763;336472;-87
2022/06/16 12:42:30;;;;;;;3.63;3.30;;;33.00;28.00;;;;;;20795;6778;117756;-87
2022/06/16 12:45:17;;;;;;;3.07;2.87;;;32.70;28.40;;;;;;20724;6794;117761;-87
2022/06/16 12:47:52;;;;;;;4.20;2.95;;;32.70;28.40;;;;;;20418;6779;340273;-87
2022/06/16 12:50:28;;;;;;;3.53;3.17;;;32.80;28.20;;;;;;20828;6763;118219;-87
2022/06/16 12:53:03;;;;;;;3.40;3.10;;;32.70;27.80;;;;;;20295;6824;306233;-87
2022/06/16 12:55:53;;;;;;;3.17;2.97;;;33.00;27.50;;;;;;20611;6768;308733;-87
2022/06/16 12:58:32;;;;;;;2.87;2.57;;;32.80;26.80;;;;;;20801;6777;121235;-87
2022/06/16 13:01:11;;;;;;;2.90;2.70;;;32.80;25.50;;;;;;20510;6794;309402;-87
2022/06/16 13:03:47;;;;;;;4.17;3.00;;;32.70;25.40;;;;;;20787;6779;119897;-88
2022/06/16 13:06:23;;;;;;;3.30;3.03;;;32.60;26.60;;;;;;20736;6779;117512;-88
2022/06/16 13:08:58;;;;;;;2.87;2.73;;;32.20;27.30;;;;;;20775;6777;119687;-87
2022/06/16 13:11:34;;;;;;;5.17;2.90;;;32.00;27.50;;;;;;20746;6791;117580;-87
2022/06/16 13:14:11;;;;;;;3.17;2.80;;;31.70;27.60;;;;;;20533;6791;307203;-88
2022/06/16 13:16:49;;;;;;;2.80;2.60;;;32.20;26.00;;;;;;20525;6776;309672;-88
2022/06/16 13:19:23;;;;;;;3.87;2.90;;;32.20;26.00;;;;;;20824;6761;120931;-88
2022/06/16 13:21:59;;;;;;;3.30;3.00;;;32.20;26.80;;;;;;20627;6761;305522;-88
2022/06/16 13:24:41;;;;;;;4.50;3.10;;;32.30;27.00;;;;;;20784;6778;117092;-88
2022/06/16 13:27:36;;;;;;;2.97;2.77;;;32.20;27.10;;;;;;20667;6778;118138;-88
2022/06/16 13:30:18;;;;;;;3.08;2.80;;;32.00;27.60;;;;;;20576;6778;336508;-88
2022/06/16 13:33:07;;;;;;;5.00;3.13;;;32.10;27.50;;;;;;20801;6778;117178;-88
2022/06/16 13:35:43;;;;;;;3.23;3.00;;;32.00;28.50;;;;;;20792;6778;119298;-88
2022/06/16 13:38:21;;;;;;;3.47;2.93;;;31.80;27.70;;;;;;20538;6792;278109;-88
2022/06/16 13:41:30;;;;;;;3.73;3.00;;;31.90;27.30;;;;;;20560;6774;307172;-88
2022/06/16 13:44:16;;;;;;;4.20;2.95;;;32.10;27.20;;;;;;20531;6792;307217;-88
2022/06/16 13:46:55;;;;;;;3.60;3.03;;;32.10;27.00;;;;;;20667;6792;117200;-88
2022/06/16 13:49:34;;;;;;;3.00;2.80;;;32.00;26.90;;;;;;20748;6792;118044;-88
2022/06/16 13:52:12;;;;;;;3.23;2.93;;;31.70;27.40;;;;;;20574;6831;287481;-88
2022/06/16 13:54:48;;;;;;;3.50;2.73;;;31.80;27.70;;;;;;20584;6778;281065;-89
2022/06/16 13:57:27;;;;;;;3.57;2.80;;;32.00;26.70;;;;;;20547;6868;117946;-89
2022/06/16 14:00:09;;;;;;;4.60;2.37;;;31.80;26.80;;;;;;20736;6793;117482;-89
2022/06/16 14:02:51;;;;;;;2.73;2.60;;;31.60;26.90;;;;;;20781;6779;117327;-89